Wallingford, Connecticut
Current Conditions -  °F | °C
As of 10:53 PM on Sunday 25 Jan 2015 (Local Time) from KMMK Reporting Station
Clear Clear  
Wind Chill: 13°   Ceiling: Unl
Heat Index: 21°   Visibility: 10mi
Dew Point:   Wind: 6mph
Humidity: 46%   Direction: 360°N
Pressure: 30.04"   Gusts: NA
Location:  41.46°N, 72.82°W
Report Text: KMMK 260353Z AUTO 36005KT 10SM CLR M06/M16 A3004 RMK AO2 SLP173 T10611161 TSNO
Loading
Personal Weather Stations






























Interactive Weather Map New forecast layout! Learn more

10-Day Weather Forecast

Advertisements
Track Severe Weather on mobile